createdAt,value
2023-04-28T00:00:44.909Z,72.15
2023-04-28T00:01:45.214Z,72.05
2023-04-28T00:02:45.575Z,72.05
2023-04-28T00:03:45.950Z,71.94
2023-04-28T00:04:46.495Z,71.88
2023-04-28T00:05:46.439Z,71.77
2023-04-28T00:06:46.723Z,71.67
2023-04-28T00:07:47.039Z,71.56
2023-04-28T00:08:47.340Z,71.56
2023-04-28T00:09:47.659Z,71.56
2023-04-28T00:10:48.006Z,71.46
2023-04-28T00:11:48.282Z,71.46
2023-04-28T00:12:48.586Z,71.36
2023-04-28T00:13:48.882Z,71.25
2023-04-28T00:14:49.211Z,71.04
2023-04-28T00:15:49.517Z,70.84
2023-04-28T00:16:50.032Z,70.63
2023-04-28T00:17:50.241Z,70.63
2023-04-28T00:18:50.434Z,70.63
2023-04-28T00:19:50.759Z,70.63
2023-04-28T00:20:51.021Z,70.84
2023-04-28T00:21:51.325Z,71.04
2023-04-28T00:22:51.632Z,71.25
2023-04-28T00:23:51.908Z,71.25
2023-04-28T00:24:52.260Z,71.36
2023-04-28T00:25:52.561Z,71.56
2023-04-28T00:26:52.895Z,71.59
2023-04-28T00:27:53.163Z,71.56
2023-04-28T00:28:53.475Z,71.59
2023-04-28T00:29:53.778Z,71.59
2023-04-28T00:30:54.099Z,71.59
2023-04-28T00:31:54.480Z,71.59
2023-04-28T00:32:54.648Z,71.80
2023-04-28T00:33:54.960Z,71.91
2023-04-28T00:34:55.246Z,71.91
2023-04-28T00:35:55.559Z,71.80
2023-04-28T00:36:55.902Z,71.70
2023-04-28T00:37:56.208Z,71.70
2023-04-28T00:38:56.524Z,71.70
2023-04-28T00:39:56.838Z,71.70
2023-04-28T00:40:57.154Z,71.59
2023-04-28T00:41:57.488Z,71.59
2023-04-28T00:42:57.782Z,71.49
2023-04-28T00:43:58.113Z,71.39
2023-04-28T00:44:58.415Z,71.39
2023-04-28T00:45:58.756Z,71.28
2023-04-28T00:46:59.072Z,71.18
2023-04-28T00:47:59.415Z,71.08
2023-04-28T00:48:59.705Z,70.97
2023-04-28T00:49:59.986Z,70.97
2023-04-28T00:51:00.295Z,70.87
2023-04-28T00:52:00.605Z,70.97
2023-04-28T00:53:00.948Z,71.11
2023-04-28T00:54:01.215Z,71.11
2023-04-28T00:55:01.517Z,71.01
2023-04-28T00:56:01.800Z,71.11
2023-04-28T00:57:02.133Z,71.45
2023-04-28T00:58:02.440Z,71.56
2023-04-28T00:59:02.730Z,71.77
2023-04-28T01:00:03.046Z,71.77
2023-04-28T01:01:03.422Z,71.66
2023-04-28T01:02:03.636Z,71.66
2023-04-28T01:03:04.062Z,71.87
2023-04-28T01:04:04.499Z,71.97
2023-04-28T01:05:04.603Z,72.08
2023-04-28T01:06:04.900Z,72.18
2023-04-28T01:07:05.636Z,72.18
2023-04-28T01:08:05.500Z,72.28
2023-04-28T01:09:05.802Z,72.28
2023-04-28T01:10:06.100Z,72.39
2023-04-28T01:11:06.416Z,72.39
2023-04-28T01:12:06.719Z,72.49
2023-04-28T01:13:07.024Z,72.49
2023-04-28T01:14:07.353Z,72.60
2023-04-28T01:15:07.675Z,72.70
2023-04-28T01:16:08.066Z,72.80
2023-04-28T01:17:08.221Z,72.60
2023-04-28T01:18:08.565Z,72.60
2023-04-28T01:19:08.829Z,72.49
2023-04-28T01:20:09.124Z,72.28
2023-04-28T01:21:09.410Z,72.18
2023-04-28T01:22:09.741Z,72.08
2023-04-28T01:23:10.041Z,72.08
2023-04-28T01:24:10.327Z,71.97
2023-04-28T01:25:10.617Z,71.97
2023-04-28T01:26:10.921Z,72.08
2023-04-28T01:27:11.223Z,72.39
2023-04-28T01:28:11.521Z,72.60
2023-04-28T01:29:11.861Z,72.70
2023-04-28T01:30:12.117Z,72.84
2023-04-28T01:31:12.448Z,73.15
2023-04-28T01:32:12.731Z,73.25
2023-04-28T01:33:13.071Z,73.46
2023-04-28T01:34:13.399Z,73.46
2023-04-28T01:35:13.643Z,73.46
2023-04-28T01:36:13.930Z,73.53
2023-04-28T01:37:14.248Z,73.74
2023-04-28T01:38:14.575Z,73.88
2023-04-28T01:39:14.864Z,73.88
2023-04-28T01:40:15.176Z,73.88
2023-04-28T01:41:15.482Z,73.77
2023-04-28T01:42:15.799Z,73.57
2023-04-28T01:43:16.091Z,73.32
2023-04-28T01:44:16.534Z,73.11
2023-04-28T01:45:16.652Z,73.05
2023-04-28T01:46:16.960Z,73.05
2023-04-28T01:47:17.300Z,73.15
2023-04-28T01:48:17.620Z,73.25
2023-04-28T01:49:17.902Z,73.46
2023-04-28T01:50:18.209Z,73.67
2023-04-28T01:51:18.505Z,73.88
2023-04-28T01:52:18.819Z,74.01
2023-04-28T01:53:19.122Z,74.11
2023-04-28T01:54:19.418Z,74.22
2023-04-28T01:55:19.715Z,74.32
2023-04-28T01:56:20.050Z,74.53
2023-04-28T01:57:21.868Z,74.74
2023-04-28T01:58:20.644Z,74.95
2023-04-28T01:59:20.984Z,75.05
2023-04-28T02:00:21.300Z,75.05
2023-04-28T02:01:21.662Z,75.15
2023-04-28T02:02:22.070Z,75.15
2023-04-28T02:03:22.412Z,75.15
2023-04-28T02:04:22.684Z,75.15
2023-04-28T02:05:22.873Z,75.36
2023-04-28T02:06:23.142Z,75.36
2023-04-28T02:07:23.517Z,75.57
2023-04-28T02:08:23.818Z,75.57
2023-04-28T02:09:24.114Z,75.57
2023-04-28T02:10:24.406Z,75.46
2023-04-28T02:11:24.727Z,75.05
2023-04-28T02:12:25.019Z,74.95
2023-04-28T02:13:25.311Z,74.95
2023-04-28T02:14:25.632Z,74.98
2023-04-28T02:15:25.925Z,74.84
2023-04-28T02:16:26.323Z,74.88
2023-04-28T02:17:26.571Z,74.67
2023-04-28T02:18:26.826Z,74.67
2023-04-28T02:19:27.158Z,74.67
2023-04-28T02:20:27.459Z,74.57
2023-04-28T02:21:27.768Z,74.53
2023-04-28T02:22:28.077Z,74.43
2023-04-28T02:23:28.387Z,74.57
2023-04-28T02:24:28.686Z,74.36
2023-04-28T02:25:29.022Z,74.26
2023-04-28T02:26:29.313Z,74.15
2023-04-28T02:27:29.628Z,74.05
2023-04-28T02:28:29.918Z,73.94
2023-04-28T02:29:30.224Z,73.84
2023-04-28T02:30:30.533Z,73.74
2023-04-28T02:31:30.846Z,73.87
2023-04-28T02:32:31.198Z,73.97
2023-04-28T02:33:31.469Z,73.94
2023-04-28T02:34:31.791Z,73.84
2023-04-28T02:35:32.078Z,73.84
2023-04-28T02:36:32.355Z,73.74
2023-04-28T02:37:32.716Z,73.74
2023-04-28T02:38:33.049Z,73.74
2023-04-28T02:39:33.315Z,73.84
2023-04-28T02:40:33.622Z,73.94
2023-04-28T02:41:33.970Z,74.05
2023-04-28T02:42:34.291Z,74.29
2023-04-28T02:43:34.577Z,74.49
2023-04-28T02:44:34.849Z,74.70
2023-04-28T02:45:35.147Z,74.80
2023-04-28T02:46:35.472Z,75.01
2023-04-28T02:47:35.813Z,75.01
2023-04-28T02:48:36.102Z,75.12
2023-04-28T02:49:36.377Z,75.22
2023-04-28T02:50:36.677Z,75.32
2023-04-28T02:51:36.976Z,75.32
2023-04-28T02:52:37.305Z,75.32
2023-04-28T02:53:37.591Z,75.32
2023-04-28T02:54:37.917Z,75.32
2023-04-28T02:55:38.205Z,75.22
2023-04-28T02:56:38.528Z,75.12
2023-04-28T02:57:38.805Z,75.01
2023-04-28T02:58:39.108Z,75.01
2023-04-28T02:59:39.413Z,75.01
2023-04-28T03:00:39.709Z,75.01
2023-04-28T03:01:40.135Z,75.01
2023-04-28T03:02:40.518Z,75.01
2023-04-28T03:03:40.844Z,75.12
2023-04-28T03:04:41.070Z,75.12
2023-04-28T03:05:41.258Z,75.12
2023-04-28T03:06:41.557Z,75.22
2023-04-28T03:07:41.881Z,75.22
2023-04-28T03:08:42.162Z,75.22
2023-04-28T03:09:42.502Z,75.22
2023-04-28T03:10:42.763Z,75.22
2023-04-28T03:11:43.053Z,75.22
2023-04-28T03:12:43.377Z,75.22
2023-04-28T03:13:43.684Z,75.22
2023-04-28T03:14:43.987Z,75.12
2023-04-28T03:15:44.325Z,74.91
2023-04-28T03:16:44.686Z,74.70
2023-04-28T03:17:44.997Z,74.60
2023-04-28T03:18:45.315Z,74.39
2023-04-28T03:19:45.670Z,74.18
2023-04-28T03:20:45.863Z,74.18
2023-04-28T03:21:46.208Z,74.32
2023-04-28T03:22:46.503Z,74.43
2023-04-28T03:23:46.830Z,74.43
2023-04-28T03:24:54.822Z,74.43
2023-04-28T03:25:47.607Z,74.43
2023-04-28T03:26:47.964Z,74.53
2023-04-28T03:27:48.079Z,74.43
2023-04-28T03:28:48.397Z,74.32
2023-04-28T03:29:48.715Z,74.32
2023-04-28T03:30:49.046Z,74.32
2023-04-28T03:31:49.463Z,74.22
2023-04-28T03:32:49.699Z,74.22
2023-04-28T03:33:49.881Z,74.01
2023-04-28T03:34:50.227Z,74.01
2023-04-28T03:35:50.569Z,74.01
2023-04-28T03:36:50.804Z,74.01
2023-04-28T03:37:51.146Z,74.01
2023-04-28T03:38:51.501Z,74.01
2023-04-28T03:39:51.706Z,74.11
2023-04-28T03:40:52.055Z,74.11
2023-04-28T03:41:52.392Z,74.32
2023-04-28T03:42:52.630Z,74.43
2023-04-28T03:43:52.856Z,74.63
2023-04-28T03:44:53.084Z,74.74
2023-04-28T03:45:53.339Z,74.84
2023-04-28T03:46:53.672Z,74.91
2023-04-28T03:47:53.920Z,75.12
2023-04-28T03:48:54.163Z,75.15
2023-04-28T03:49:54.472Z,75.26
2023-04-28T03:50:54.697Z,75.36
2023-04-28T03:51:55.151Z,75.36
2023-04-28T03:52:55.315Z,75.46
2023-04-28T03:53:55.655Z,75.36
2023-04-28T03:54:55.886Z,75.36
2023-04-28T03:55:56.121Z,75.15
2023-04-28T03:56:56.353Z,74.95
2023-04-28T03:57:56.611Z,74.84
2023-04-28T03:58:56.919Z,74.95
2023-04-28T03:59:57.250Z,74.95
2023-04-28T04:00:57.625Z,74.95
2023-04-28T04:01:57.846Z,75.05
2023-04-28T04:02:58.204Z,75.01
2023-04-28T04:03:58.469Z,75.12
2023-04-28T04:04:58.905Z,75.12
2023-04-28T04:05:58.883Z,75.22
2023-04-28T04:06:59.260Z,75.22
2023-04-28T04:07:59.474Z,75.22
2023-04-28T04:08:59.707Z,75.22
2023-04-28T04:10:01.374Z,75.12
2023-04-28T04:11:00.242Z,75.01
2023-04-28T04:12:00.578Z,74.91
2023-04-28T04:13:00.812Z,74.91
2023-04-28T04:14:01.037Z,74.91
2023-04-28T04:15:01.405Z,74.91
2023-04-28T04:16:01.652Z,74.98
2023-04-28T04:17:01.869Z,74.88
2023-04-28T04:18:02.164Z,74.88
2023-04-28T04:19:02.360Z,74.98
2023-04-28T04:20:02.590Z,75.19
2023-04-28T04:21:02.831Z,75.29
2023-04-28T04:22:03.168Z,75.40
2023-04-28T04:23:03.392Z,75.60
2023-04-28T04:24:03.732Z,75.71
2023-04-28T04:25:04.091Z,75.71
2023-04-28T04:26:04.335Z,75.92
2023-04-28T04:27:04.581Z,76.02
2023-04-28T04:28:04.808Z,76.12
2023-04-28T04:29:05.053Z,76.12
2023-04-28T04:30:05.276Z,76.23
2023-04-28T04:31:05.639Z,76.43
2023-04-28T04:32:05.876Z,76.43
2023-04-28T04:33:06.191Z,76.40
2023-04-28T04:34:06.396Z,76.29
2023-04-28T04:35:06.647Z,76.29
2023-04-28T04:36:06.874Z,76.19
2023-04-28T04:37:07.148Z,76.19
2023-04-28T04:38:07.319Z,76.29
2023-04-28T04:39:07.620Z,76.29
2023-04-28T04:40:07.888Z,76.29
2023-04-28T04:41:08.101Z,76.29
2023-04-28T04:42:23.266Z,76.26
2023-04-28T04:43:09.703Z,76.26
2023-04-28T04:44:08.981Z,76.26
2023-04-28T04:45:09.327Z,76.16
2023-04-28T04:46:09.580Z,76.26
2023-04-28T04:47:09.914Z,76.26
2023-04-28T04:48:10.173Z,76.37
2023-04-28T04:49:10.438Z,76.57
2023-04-28T04:50:10.670Z,76.54
2023-04-28T04:51:11.022Z,76.54
2023-04-28T04:52:11.293Z,76.23
2023-04-28T04:53:14.582Z,76.33
2023-04-28T04:54:11.820Z,76.43
2023-04-28T04:55:12.045Z,76.43
2023-04-28T04:56:12.291Z,76.43
2023-04-28T04:57:12.535Z,76.40
2023-04-28T04:58:12.761Z,76.29
2023-04-28T04:59:13.014Z,76.29
2023-04-28T05:00:13.259Z,75.88
2023-04-28T05:01:13.546Z,75.78
2023-04-28T05:02:13.791Z,75.67
2023-04-28T05:03:14.126Z,75.57
2023-04-28T05:04:14.577Z,75.53
2023-04-28T05:05:21.293Z,75.32
2023-04-28T05:06:15.888Z,75.22
2023-04-28T05:07:15.206Z,74.91
2023-04-28T05:08:15.442Z,74.77
2023-04-28T05:09:15.694Z,74.43
2023-04-28T05:10:15.955Z,73.39
2023-04-28T05:11:16.212Z,71.64
2023-04-28T05:12:16.476Z,69.07
2023-04-28T05:13:16.725Z,66.91
2023-04-28T05:14:17.273Z,64.48
2023-04-28T05:15:17.285Z,62.58
2023-04-28T05:16:17.532Z,61.29
2023-04-28T05:17:17.762Z,59.92
2023-04-28T05:18:18.032Z,59.36
2023-04-28T05:19:18.303Z,58.30
2023-04-28T05:20:18.529Z,57.64
2023-04-28T05:21:18.831Z,56.79
2023-04-28T05:22:19.200Z,55.84
2023-04-28T05:23:19.423Z,54.90
2023-04-28T05:24:19.678Z,54.36
2023-04-28T05:25:19.987Z,54.03
2023-04-28T05:26:20.242Z,53.49
2023-04-28T05:27:20.511Z,53.16
2023-04-28T05:28:22.087Z,52.42
2023-04-28T05:29:21.186Z,51.17
2023-04-28T05:30:21.272Z,50.77
2023-04-28T05:31:21.613Z,50.84
2023-04-28T05:32:21.920Z,50.62
2023-04-28T05:33:22.037Z,50.09
2023-04-28T05:34:22.316Z,50.06
2023-04-28T05:35:22.563Z,48.61
2023-04-28T05:36:22.815Z,48.72
2023-04-28T05:37:23.098Z,48.61
2023-04-28T05:38:23.566Z,48.33
2023-04-28T05:39:23.634Z,48.43
2023-04-28T05:40:23.881Z,49.12
2023-04-28T05:41:24.147Z,48.21
2023-04-28T05:42:24.431Z,47.98
2023-04-28T05:43:24.686Z,47.78
2023-04-28T05:44:24.926Z,47.86
2023-04-28T05:45:25.203Z,47.75
2023-04-28T05:46:30.795Z,47.96
2023-04-28T05:47:26.767Z,48.04
2023-04-28T05:48:26.071Z,48.02
2023-04-28T05:49:26.313Z,47.59
2023-04-28T05:50:26.612Z,46.27
2023-04-28T05:51:26.861Z,46.37
2023-04-28T05:52:27.090Z,45.94
2023-04-28T05:53:27.377Z,45.46
2023-04-28T05:54:27.627Z,45.43
2023-04-28T05:55:27.891Z,45.05
2023-04-28T05:56:28.163Z,44.85
2023-04-28T05:57:29.348Z,44.82
2023-04-28T05:58:28.717Z,45.21
2023-04-28T05:59:28.980Z,44.82
2023-04-28T06:00:29.268Z,45.43
2023-04-28T06:01:29.499Z,45.31
2023-04-28T06:02:29.872Z,45.11
2023-04-28T06:03:30.209Z,45.42
2023-04-28T06:04:30.554Z,44.62
2023-04-28T06:05:30.835Z,44.82
2023-04-28T06:06:30.937Z,44.90
2023-04-28T06:07:31.169Z,44.78
2023-04-28T06:08:31.402Z,43.47
2023-04-28T06:09:31.660Z,42.86
2023-04-28T06:10:31.922Z,43.08
2023-04-28T06:11:32.176Z,43.67
2023-04-28T06:12:32.450Z,43.77
2023-04-28T06:13:32.732Z,43.47
2023-04-28T06:14:32.976Z,43.26
2023-04-28T06:15:33.288Z,43.08
2023-04-28T06:16:33.547Z,43.81
2023-04-28T06:17:33.787Z,44.36
2023-04-28T06:18:34.038Z,44.79
2023-04-28T06:19:34.306Z,45.11
2023-04-28T06:20:34.554Z,45.24
2023-04-28T06:21:34.828Z,45.75
2023-04-28T06:22:35.098Z,45.64
2023-04-28T06:23:35.369Z,45.75
2023-04-28T06:24:35.648Z,46.03
2023-04-28T06:25:35.901Z,45.70
2023-04-28T06:26:36.193Z,45.68
2023-04-28T06:27:36.519Z,45.17
2023-04-28T06:28:36.756Z,45.17
2023-04-28T06:29:37.000Z,45.37
2023-04-28T06:30:37.250Z,46.11
2023-04-28T06:31:37.619Z,46.41
2023-04-28T06:32:37.807Z,46.51
2023-04-28T06:33:38.077Z,46.84
2023-04-28T06:34:38.339Z,47.17
2023-04-28T06:35:38.596Z,47.98
2023-04-28T06:36:38.823Z,48.54
2023-04-28T06:37:39.059Z,49.27
2023-04-28T06:38:39.305Z,50.13
2023-04-28T06:39:39.531Z,50.97
2023-04-28T06:40:39.803Z,51.61
2023-04-28T06:41:40.121Z,52.25
2023-04-28T06:42:40.361Z,52.70
2023-04-28T06:43:40.601Z,53.44
2023-04-28T06:44:40.895Z,53.77
2023-04-28T06:45:41.103Z,54.00
2023-04-28T06:46:41.448Z,54.82
2023-04-28T06:47:41.677Z,55.56
2023-04-28T06:48:41.867Z,55.66
2023-04-28T06:49:42.135Z,56.00
2023-04-28T06:50:43.941Z,55.38
2023-04-28T06:51:42.779Z,55.62
2023-04-28T06:52:42.963Z,55.62
2023-04-28T06:53:43.209Z,56.23
2023-04-28T06:54:44.192Z,55.92
2023-04-28T06:55:43.754Z,55.94
2023-04-28T06:56:43.996Z,56.35
2023-04-28T06:57:44.454Z,55.64
2023-04-28T06:58:44.481Z,56.26
2023-04-28T06:59:44.716Z,56.26
2023-04-28T07:00:45.030Z,56.35
2023-04-28T07:01:45.308Z,56.18
2023-04-28T07:02:45.625Z,56.38
2023-04-28T07:03:45.839Z,56.90
2023-04-28T07:04:46.133Z,57.10
2023-04-28T07:05:46.312Z,57.82
2023-04-28T07:06:46.532Z,57.38
2023-04-28T07:07:46.764Z,57.07
2023-04-28T07:08:47.044Z,57.07
2023-04-28T07:09:47.357Z,57.07
2023-04-28T07:10:47.583Z,57.38
2023-04-28T07:11:47.878Z,57.07
2023-04-28T07:12:48.143Z,56.87
2023-04-28T07:13:48.371Z,57.38
2023-04-28T07:14:48.633Z,57.18
2023-04-28T07:15:48.922Z,57.48
2023-04-28T07:16:49.228Z,57.48
2023-04-28T07:17:49.495Z,56.87
2023-04-28T07:18:49.716Z,57.07
2023-04-28T07:19:49.978Z,57.69
2023-04-28T07:20:50.290Z,57.69
2023-04-28T07:21:50.615Z,58.00
2023-04-28T07:22:50.893Z,56.87
2023-04-28T07:23:51.123Z,56.67
2023-04-28T07:24:51.366Z,57.28
2023-04-28T07:25:51.625Z,57.38
2023-04-28T07:26:51.891Z,57.79
2023-04-28T07:27:52.267Z,57.35
2023-04-28T07:28:52.479Z,57.05
2023-04-28T07:29:52.695Z,57.46
2023-04-28T07:30:53.009Z,57.35
2023-04-28T07:31:53.285Z,57.15
2023-04-28T07:32:53.536Z,56.64
2023-04-28T07:33:53.758Z,56.54
2023-04-28T07:34:53.992Z,56.33
2023-04-28T07:35:54.245Z,56.54
2023-04-28T07:36:54.450Z,56.95
2023-04-28T07:37:54.685Z,55.82
2023-04-28T07:38:54.919Z,55.79
2023-04-28T07:39:55.212Z,55.28
2023-04-28T07:40:55.486Z,54.25
2023-04-28T07:41:55.712Z,53.85
2023-04-28T07:42:55.993Z,54.36
2023-04-28T07:43:56.205Z,53.85
2023-04-28T07:44:56.452Z,54.46
2023-04-28T07:45:56.718Z,54.77
2023-04-28T07:46:56.928Z,54.46
2023-04-28T07:47:57.137Z,54.57
2023-04-28T07:48:57.394Z,54.36
2023-04-28T07:49:57.626Z,53.64
2023-04-28T07:50:57.880Z,53.52
2023-04-28T07:51:58.090Z,53.52
2023-04-28T07:52:58.452Z,54.23
2023-04-28T07:53:58.747Z,53.72
2023-04-28T07:54:58.986Z,52.19
2023-04-28T07:55:59.252Z,51.57
2023-04-28T07:56:59.533Z,50.65
2023-04-28T07:57:59.793Z,50.96
2023-04-28T07:59:08.778Z,50.45
2023-04-28T08:00:00.293Z,49.11
2023-04-28T08:01:00.625Z,49.63
2023-04-28T08:02:00.835Z,49.71
2023-04-28T08:03:01.200Z,49.50
2023-04-28T08:04:01.678Z,49.71
2023-04-28T08:05:01.706Z,49.91
2023-04-28T08:06:02.169Z,49.60
2023-04-28T08:07:02.289Z,49.30
2023-04-28T08:08:02.558Z,47.05
2023-04-28T08:09:02.813Z,47.66
2023-04-28T08:10:03.105Z,47.64
2023-04-28T08:11:03.385Z,47.74
2023-04-28T08:12:03.611Z,45.92
2023-04-28T08:13:03.847Z,47.03
2023-04-28T08:14:04.128Z,46.11
2023-04-28T08:15:04.369Z,46.72
2023-04-28T08:16:04.770Z,46.21
2023-04-28T08:17:04.888Z,46.41
2023-04-28T08:18:05.172Z,45.70
2023-04-28T08:19:05.546Z,45.90
2023-04-28T08:20:05.674Z,46.21
2023-04-28T08:21:05.975Z,46.21
2023-04-28T08:22:06.366Z,46.51
2023-04-28T08:23:06.553Z,46.92
2023-04-28T08:24:06.888Z,47.23
2023-04-28T08:25:07.108Z,46.11
2023-04-28T08:26:07.371Z,44.37
2023-04-28T08:27:07.627Z,44.24
2023-04-28T08:28:07.902Z,44.26
2023-04-28T08:29:08.178Z,45.47
2023-04-28T08:30:08.459Z,44.55
2023-04-28T08:31:08.793Z,45.08
2023-04-28T08:32:09.009Z,45.06
2023-04-28T08:33:09.311Z,43.35
2023-04-28T08:34:09.623Z,42.94
2023-04-28T08:35:09.862Z,42.83
2023-04-28T08:36:10.198Z,43.24
2023-04-28T08:37:10.462Z,43.04
2023-04-28T08:38:10.746Z,42.02
2023-04-28T08:39:13.459Z,41.91
2023-04-28T08:40:11.345Z,42.63
2023-04-28T08:41:11.614Z,43.24
2023-04-28T08:42:11.938Z,42.50
2023-04-28T08:43:12.254Z,42.91
2023-04-28T08:44:12.532Z,43.53
2023-04-28T08:45:12.753Z,43.63
2023-04-28T08:46:13.060Z,42.30
2023-04-28T08:47:13.342Z,43.22
2023-04-28T08:48:13.571Z,42.79
2023-04-28T08:49:13.841Z,44.02
2023-04-28T08:50:14.205Z,43.00
2023-04-28T08:51:14.482Z,42.79
2023-04-28T08:52:14.791Z,42.38
2023-04-28T08:53:15.067Z,42.59
2023-04-28T08:54:25.558Z,43.10
2023-04-28T08:55:16.554Z,43.82
2023-04-28T08:56:15.944Z,42.38
2023-04-28T08:57:16.142Z,42.38
2023-04-28T08:58:16.377Z,42.79
2023-04-28T08:59:16.646Z,43.82
2023-04-28T09:00:16.885Z,43.41
2023-04-28T09:01:17.217Z,43.71
2023-04-28T09:02:17.622Z,43.79
2023-04-28T09:03:17.858Z,42.97
2023-04-28T09:04:18.492Z,44.20
2023-04-28T09:05:18.601Z,43.79
2023-04-28T09:06:18.599Z,42.88
2023-04-28T09:07:18.858Z,42.77
2023-04-28T09:08:19.120Z,42.77
2023-04-28T09:09:19.402Z,43.49
2023-04-28T09:10:19.657Z,43.59
2023-04-28T09:11:19.938Z,43.79
2023-04-28T09:12:20.184Z,43.38
2023-04-28T09:13:20.441Z,42.96
2023-04-28T09:14:20.755Z,42.36
2023-04-28T09:15:20.989Z,43.06
2023-04-28T09:16:21.255Z,42.96
2023-04-28T09:17:21.494Z,43.77
2023-04-28T09:18:21.769Z,43.67
2023-04-28T09:19:22.005Z,44.38
2023-04-28T09:20:22.234Z,43.67
2023-04-28T09:21:22.688Z,44.18
2023-04-28T09:22:26.839Z,44.16
2023-04-28T09:23:23.307Z,44.37
2023-04-28T09:24:23.537Z,44.06
2023-04-28T09:25:23.855Z,43.35
2023-04-28T09:26:24.144Z,44.16
2023-04-28T09:27:24.362Z,43.85
2023-04-28T09:28:24.760Z,42.63
2023-04-28T09:29:25.191Z,43.55
2023-04-28T09:30:25.521Z,43.04
2023-04-28T09:31:25.833Z,41.92
2023-04-28T09:32:26.049Z,41.71
2023-04-28T09:33:26.242Z,42.73
2023-04-28T09:34:26.510Z,44.37
2023-04-28T09:35:26.847Z,43.73
2023-04-28T09:36:27.281Z,43.63
2023-04-28T09:37:27.659Z,43.63
2023-04-28T09:38:27.775Z,43.32
2023-04-28T09:39:28.018Z,42.30
2023-04-28T09:40:28.314Z,42.30
2023-04-28T09:41:28.684Z,42.61
2023-04-28T09:42:28.801Z,41.39
2023-04-28T09:43:29.079Z,41.89
2023-04-28T09:44:29.379Z,42.30
2023-04-28T09:45:30.485Z,41.69
2023-04-28T09:46:29.910Z,41.69
2023-04-28T09:47:30.236Z,42.41
2023-04-28T09:48:30.498Z,41.69
2023-04-28T09:49:30.788Z,41.59
2023-04-28T09:50:31.055Z,42.10
2023-04-28T09:51:31.392Z,42.71
2023-04-28T09:52:31.658Z,42.08
2023-04-28T09:53:31.906Z,42.69
2023-04-28T09:54:32.191Z,43.00
2023-04-28T09:55:32.494Z,42.18
2023-04-28T09:56:32.794Z,42.27
2023-04-28T09:57:33.177Z,41.25
2023-04-28T09:58:33.332Z,40.86
2023-04-28T09:59:33.574Z,41.37
2023-04-28T10:00:33.873Z,42.49
2023-04-28T10:01:34.230Z,40.96
2023-04-28T10:02:43.136Z,41.16
2023-04-28T10:03:35.799Z,41.16
2023-04-28T10:04:35.115Z,41.96
2023-04-28T10:05:35.386Z,41.45
2023-04-28T10:06:35.609Z,42.47
2023-04-28T10:07:35.863Z,42.47
2023-04-28T10:08:36.159Z,41.75
2023-04-28T10:09:36.425Z,40.84
2023-04-28T10:10:36.672Z,40.84
2023-04-28T10:11:36.950Z,40.96
2023-04-28T10:12:37.242Z,41.27
2023-04-28T10:13:37.474Z,41.16
2023-04-28T10:14:37.739Z,41.06
2023-04-28T10:15:38.061Z,41.27
2023-04-28T10:16:38.306Z,42.06
2023-04-28T10:17:38.633Z,42.27
2023-04-28T10:18:38.870Z,41.45
2023-04-28T10:19:39.154Z,41.25
2023-04-28T10:20:39.480Z,41.45
2023-04-28T10:21:39.736Z,41.75
2023-04-28T10:22:39.975Z,41.66
2023-04-28T10:23:40.258Z,41.25
2023-04-28T10:24:41.982Z,41.94
2023-04-28T10:25:40.834Z,42.55
2023-04-28T10:26:41.086Z,42.45
2023-04-28T10:27:41.431Z,42.76
2023-04-28T10:28:43.643Z,42.13
2023-04-28T10:29:42.076Z,41.33
2023-04-28T10:30:42.206Z,41.02
2023-04-28T10:31:42.507Z,41.31
2023-04-28T10:32:42.795Z,41.72
2023-04-28T10:33:43.006Z,41.23
2023-04-28T10:34:43.255Z,41.33
2023-04-28T10:35:43.573Z,41.43
2023-04-28T10:36:43.792Z,41.74
2023-04-28T10:37:44.058Z,42.65
2023-04-28T10:38:44.316Z,43.55
2023-04-28T10:39:44.626Z,43.55
2023-04-28T10:40:44.964Z,43.24
2023-04-28T10:41:45.331Z,42.83
2023-04-28T10:42:45.575Z,42.33
2023-04-28T10:43:45.841Z,42.83
2023-04-28T10:44:46.079Z,43.24
2023-04-28T10:45:46.368Z,43.55
2023-04-28T10:46:46.657Z,43.75
2023-04-28T10:47:47.061Z,43.24
2023-04-28T10:48:47.189Z,43.55
2023-04-28T10:49:47.453Z,43.67
2023-04-28T10:50:48.661Z,43.87
2023-04-28T10:51:48.052Z,44.59
2023-04-28T10:52:48.310Z,45.59
2023-04-28T10:53:48.611Z,45.79
2023-04-28T10:54:48.859Z,45.48
2023-04-28T10:55:49.225Z,45.26
2023-04-28T10:56:49.461Z,44.85
2023-04-28T10:57:49.724Z,44.65
2023-04-28T10:58:49.991Z,44.65
2023-04-28T10:59:50.415Z,44.65
2023-04-28T11:00:50.534Z,44.75
2023-04-28T11:01:50.962Z,44.95
2023-04-28T11:02:51.324Z,44.45
2023-04-28T11:03:52.435Z,44.95
2023-04-28T11:04:51.898Z,45.24
2023-04-28T11:05:52.205Z,44.75
2023-04-28T11:06:52.306Z,44.85
2023-04-28T11:07:53.893Z,44.04
2023-04-28T11:08:52.814Z,44.34
2023-04-28T11:09:53.172Z,44.54
2023-04-28T11:10:54.046Z,44.54
2023-04-28T11:11:53.739Z,44.85
2023-04-28T11:12:53.995Z,44.83
2023-04-28T11:13:54.256Z,45.24
2023-04-28T11:14:54.514Z,44.83
2023-04-28T11:15:54.820Z,43.91
2023-04-28T11:16:55.138Z,44.22
2023-04-28T11:17:55.486Z,45.03
2023-04-28T11:18:56.160Z,45.34
2023-04-28T11:19:55.821Z,45.44
2023-04-28T11:20:56.122Z,44.02
2023-04-28T11:21:56.384Z,43.91
2023-04-28T11:22:56.660Z,44.02
2023-04-28T11:23:56.967Z,44.53
2023-04-28T11:24:57.221Z,43.99
2023-04-28T11:25:57.481Z,44.20
2023-04-28T11:26:57.733Z,43.90
2023-04-28T11:27:58.004Z,43.49
2023-04-28T11:28:58.297Z,43.71
2023-04-28T11:29:58.568Z,43.81
2023-04-28T11:30:58.849Z,43.81
2023-04-28T11:31:59.145Z,43.69
2023-04-28T11:32:59.457Z,44.51
2023-04-28T11:33:59.676Z,44.91
2023-04-28T11:34:59.958Z,45.62
2023-04-28T11:36:00.210Z,46.53
2023-04-28T11:37:00.459Z,45.80
2023-04-28T11:38:00.707Z,45.20
2023-04-28T11:39:00.970Z,43.87
2023-04-28T11:40:01.242Z,44.08
2023-04-28T11:41:01.544Z,44.38
2023-04-28T11:42:01.805Z,44.59
2023-04-28T11:43:02.174Z,44.48
2023-04-28T11:44:02.409Z,44.99
2023-04-28T11:45:02.716Z,44.99
2023-04-28T11:46:03.015Z,44.36
2023-04-28T11:47:03.801Z,44.36
2023-04-28T11:48:03.672Z,44.77
2023-04-28T11:49:03.889Z,44.87
2023-04-28T11:50:04.170Z,44.44
2023-04-28T11:51:04.441Z,44.95
2023-04-28T11:52:04.715Z,44.13
2023-04-28T11:53:04.964Z,43.84
2023-04-28T11:54:05.227Z,44.13
2023-04-28T11:55:05.482Z,45.25
2023-04-28T11:56:06.249Z,45.13
2023-04-28T11:57:06.097Z,43.91
2023-04-28T11:58:06.366Z,43.61
2023-04-28T11:59:06.669Z,43.71
2023-04-28T12:00:06.924Z,43.71
2023-04-28T12:01:07.210Z,43.93
2023-04-28T12:02:07.549Z,44.24
2023-04-28T12:03:08.113Z,43.84
2023-04-28T12:04:08.216Z,43.84
2023-04-28T12:05:08.604Z,43.63
2023-04-28T12:06:08.731Z,43.73
2023-04-28T12:07:08.954Z,43.73
2023-04-28T12:08:09.236Z,43.53
2023-04-28T12:09:09.498Z,43.84
2023-04-28T12:10:09.741Z,43.73
2023-04-28T12:11:10.051Z,44.04
2023-04-28T12:12:10.317Z,44.34
2023-04-28T12:13:10.573Z,44.42
2023-04-28T12:14:10.840Z,43.91
2023-04-28T12:15:11.098Z,43.71
2023-04-28T12:16:11.399Z,43.91
2023-04-28T12:17:11.660Z,44.01
2023-04-28T12:18:11.969Z,43.89
2023-04-28T12:19:12.196Z,43.89
2023-04-28T12:20:12.465Z,43.79
2023-04-28T12:21:12.767Z,43.59
2023-04-28T12:22:13.101Z,44.10
2023-04-28T12:23:13.372Z,44.30
2023-04-28T12:24:13.651Z,44.10
2023-04-28T12:25:13.935Z,44.18
2023-04-28T12:26:14.211Z,43.57
2023-04-28T12:27:14.490Z,43.06
2023-04-28T12:28:14.723Z,43.37
2023-04-28T12:29:15.049Z,44.18
2023-04-28T12:30:15.307Z,43.98
2023-04-28T12:31:15.584Z,43.67
2023-04-28T12:32:15.921Z,43.77
2023-04-28T12:33:16.168Z,43.87
2023-04-28T12:34:16.411Z,42.96
2023-04-28T12:35:16.673Z,42.98
2023-04-28T12:36:16.950Z,43.49
2023-04-28T12:37:17.198Z,44.40
2023-04-28T12:38:17.513Z,44.30
2023-04-28T12:39:17.755Z,43.99
2023-04-28T12:40:18.056Z,43.59
2023-04-28T12:41:18.360Z,43.99
2023-04-28T12:42:18.619Z,43.59
2023-04-28T12:43:18.880Z,43.89
2023-04-28T12:44:19.190Z,44.10
2023-04-28T12:45:19.444Z,43.79
2023-04-28T12:46:19.738Z,43.69
2023-04-28T12:47:20.078Z,43.99
2023-04-28T12:48:20.259Z,44.10
2023-04-28T12:49:20.531Z,44.68
2023-04-28T12:50:20.777Z,44.27
2023-04-28T12:51:21.749Z,43.67
2023-04-28T12:52:21.313Z,43.57
2023-04-28T12:53:21.578Z,43.37
2023-04-28T12:54:21.827Z,43.57
2023-04-28T12:55:22.164Z,44.07
2023-04-28T12:56:22.497Z,44.07